sensor_id;sensor_type;location;lat;lon;timestamp;P1;durP1;ratioP1;P2;durP2;ratioP2
75787;SDS011;64406;50.024;14.492;2022-12-05T00:02:02;18.88;;;10.90;;
75787;SDS011;64406;50.024;14.492;2022-12-05T00:04:27;17.40;;;10.27;;
75787;SDS011;64406;50.024;14.492;2022-12-05T00:06:53;19.05;;;10.15;;
75787;SDS011;64406;50.024;14.492;2022-12-05T00:09:18;18.20;;;10.50;;
75787;SDS011;64406;50.024;14.492;2022-12-05T00:11:44;20.30;;;12.02;;
75787;SDS011;64406;50.024;14.492;2022-12-05T00:14:10;17.50;;;10.02;;
75787;SDS011;64406;50.024;14.492;2022-12-05T00:16:37;20.02;;;10.70;;
75787;SDS011;64406;50.024;14.492;2022-12-05T00:19:05;19.52;;;10.93;;
75787;SDS011;64406;50.024;14.492;2022-12-05T00:21:33;23.30;;;11.98;;
75787;SDS011;64406;50.024;14.492;2022-12-05T00:24:00;19.67;;;11.02;;
75787;SDS011;64406;50.024;14.492;2022-12-05T00:26:27;20.73;;;11.05;;
75787;SDS011;64406;50.024;14.492;2022-12-05T00:28:53;21.05;;;11.80;;
75787;SDS011;64406;50.024;14.492;2022-12-05T00:31:20;18.40;;;10.90;;
75787;SDS011;64406;50.024;14.492;2022-12-05T00:33:47;20.08;;;10.40;;
75787;SDS011;64406;50.024;14.492;2022-12-05T00:36:19;22.52;;;11.30;;
75787;SDS011;64406;50.024;14.492;2022-12-05T00:38:50;17.70;;;10.13;;
75787;SDS011;64406;50.024;14.492;2022-12-05T00:41:17;16.67;;;9.82;;
75787;SDS011;64406;50.024;14.492;2022-12-05T00:43:45;18.02;;;10.23;;
75787;SDS011;64406;50.024;14.492;2022-12-05T00:46:11;17.77;;;10.77;;
75787;SDS011;64406;50.024;14.492;2022-12-05T00:48:40;17.25;;;10.38;;
75787;SDS011;64406;50.024;14.492;2022-12-05T00:51:07;15.65;;;9.38;;
75787;SDS011;64406;50.024;14.492;2022-12-05T00:53:35;16.70;;;9.48;;
75787;SDS011;64406;50.024;14.492;2022-12-05T00:56:05;18.17;;;10.32;;
75787;SDS011;64406;50.024;14.492;2022-12-05T00:58:33;17.88;;;9.90;;
75787;SDS011;64406;50.024;14.492;2022-12-05T01:03:32;17.15;;;10.63;;
75787;SDS011;64406;50.024;14.492;2022-12-05T01:05:58;18.45;;;9.55;;
75787;SDS011;64406;50.024;14.492;2022-12-05T01:08:24;17.15;;;10.45;;
75787;SDS011;64406;50.024;14.492;2022-12-05T01:10:53;17.35;;;9.40;;
75787;SDS011;64406;50.024;14.492;2022-12-05T01:13:20;16.15;;;9.35;;
75787;SDS011;64406;50.024;14.492;2022-12-05T01:15:46;16.80;;;10.27;;
75787;SDS011;64406;50.024;14.492;2022-12-05T01:18:12;19.05;;;10.45;;
75787;SDS011;64406;50.024;14.492;2022-12-05T01:20:38;16.90;;;9.10;;
75787;SDS011;64406;50.024;14.492;2022-12-05T01:23:05;18.08;;;10.32;;
75787;SDS011;64406;50.024;14.492;2022-12-05T01:25:30;17.88;;;10.20;;
75787;SDS011;64406;50.024;14.492;2022-12-05T01:27:56;15.57;;;9.73;;
75787;SDS011;64406;50.024;14.492;2022-12-05T01:30:21;18.33;;;9.00;;
75787;SDS011;64406;50.024;14.492;2022-12-05T01:32:47;14.68;;;8.85;;
75787;SDS011;64406;50.024;14.492;2022-12-05T01:35:12;16.05;;;9.15;;
75787;SDS011;64406;50.024;14.492;2022-12-05T01:37:38;16.45;;;9.65;;
75787;SDS011;64406;50.024;14.492;2022-12-05T01:40:04;16.35;;;9.43;;
75787;SDS011;64406;50.024;14.492;2022-12-05T01:42:30;15.35;;;8.55;;
75787;SDS011;64406;50.024;14.492;2022-12-05T01:44:58;16.15;;;8.82;;
75787;SDS011;64406;50.024;14.492;2022-12-05T01:47:26;17.38;;;8.98;;
75787;SDS011;64406;50.024;14.492;2022-12-05T01:49:55;16.13;;;9.40;;
75787;SDS011;64406;50.024;14.492;2022-12-05T01:52:22;14.15;;;9.00;;
75787;SDS011;64406;50.024;14.492;2022-12-05T01:54:51;15.02;;;8.55;;
75787;SDS011;64406;50.024;14.492;2022-12-05T01:57:21;13.90;;;8.60;;
75787;SDS011;64406;50.024;14.492;2022-12-05T01:59:48;14.07;;;8.23;;
75787;SDS011;64406;50.024;14.492;2022-12-05T02:02:17;14.65;;;8.60;;
75787;SDS011;64406;50.024;14.492;2022-12-05T02:04:46;14.02;;;8.32;;
75787;SDS011;64406;50.024;14.492;2022-12-05T02:07:33;15.80;;;8.88;;
75787;SDS011;64406;50.024;14.492;2022-12-05T02:10:02;14.57;;;8.50;;
75787;SDS011;64406;50.024;14.492;2022-12-05T02:12:28;14.98;;;9.07;;
75787;SDS011;64406;50.024;14.492;2022-12-05T02:18:03;14.90;;;8.53;;
75787;SDS011;64406;50.024;14.492;2022-12-05T02:23:41;14.48;;;8.02;;
75787;SDS011;64406;50.024;14.492;2022-12-05T02:31:48;13.95;;;8.30;;
75787;SDS011;64406;50.024;14.492;2022-12-05T02:37:08;12.88;;;8.05;;
75787;SDS011;64406;50.024;14.492;2022-12-05T02:43:17;13.23;;;8.05;;
75787;SDS011;64406;50.024;14.492;2022-12-05T02:45:26;14.23;;;8.55;;
75787;SDS011;64406;50.024;14.492;2022-12-05T02:47:55;12.32;;;7.85;;
75787;SDS011;64406;50.024;14.492;2022-12-05T02:50:22;14.48;;;8.00;;
75787;SDS011;64406;50.024;14.492;2022-12-05T02:52:52;15.30;;;7.90;;
75787;SDS011;64406;50.024;14.492;2022-12-05T02:55:22;15.75;;;7.55;;
75787;SDS011;64406;50.024;14.492;2022-12-05T02:57:53;12.05;;;7.15;;
75787;SDS011;64406;50.024;14.492;2022-12-05T03:00:22;11.02;;;6.63;;
75787;SDS011;64406;50.024;14.492;2022-12-05T03:02:50;12.68;;;6.32;;
75787;SDS011;64406;50.024;14.492;2022-12-05T03:05:21;9.13;;;6.28;;
75787;SDS011;64406;50.024;14.492;2022-12-05T03:07:57;10.15;;;6.07;;
75787;SDS011;64406;50.024;14.492;2022-12-05T03:10:26;10.82;;;7.18;;
75787;SDS011;64406;50.024;14.492;2022-12-05T03:12:55;10.32;;;6.20;;
75787;SDS011;64406;50.024;14.492;2022-12-05T03:15:26;8.82;;;6.15;;
75787;SDS011;64406;50.024;14.492;2022-12-05T03:17:58;9.80;;;6.68;;
75787;SDS011;64406;50.024;14.492;2022-12-05T03:20:32;10.88;;;6.43;;
75787;SDS011;64406;50.024;14.492;2022-12-05T03:23:15;10.43;;;6.57;;
75787;SDS011;64406;50.024;14.492;2022-12-05T03:25:53;9.18;;;5.85;;
75787;SDS011;64406;50.024;14.492;2022-12-05T03:28:28;8.68;;;5.65;;
75787;SDS011;64406;50.024;14.492;2022-12-05T03:31:02;10.20;;;5.80;;
75787;SDS011;64406;50.024;14.492;2022-12-05T03:33:34;8.15;;;5.63;;
75787;SDS011;64406;50.024;14.492;2022-12-05T03:38:44;12.35;;;6.57;;
75787;SDS011;64406;50.024;14.492;2022-12-05T03:41:24;11.15;;;6.72;;
75787;SDS011;64406;50.024;14.492;2022-12-05T03:44:44;11.15;;;7.38;;
75787;SDS011;64406;50.024;14.492;2022-12-05T03:47:19;11.75;;;6.97;;
75787;SDS011;64406;50.024;14.492;2022-12-05T03:49:52;10.73;;;6.75;;
75787;SDS011;64406;50.024;14.492;2022-12-05T03:52:29;9.63;;;6.30;;
75787;SDS011;64406;50.024;14.492;2022-12-05T03:55:00;14.52;;;7.47;;
75787;SDS011;64406;50.024;14.492;2022-12-05T03:57:39;13.75;;;7.53;;
75787;SDS011;64406;50.024;14.492;2022-12-05T04:00:11;11.57;;;7.30;;
75787;SDS011;64406;50.024;14.492;2022-12-05T04:02:54;10.00;;;6.90;;
75787;SDS011;64406;50.024;14.492;2022-12-05T04:05:34;13.73;;;8.30;;
75787;SDS011;64406;50.024;14.492;2022-12-05T04:08:02;12.65;;;6.93;;
75787;SDS011;64406;50.024;14.492;2022-12-05T04:10:31;12.38;;;6.78;;
75787;SDS011;64406;50.024;14.492;2022-12-05T04:13:17;11.75;;;7.10;;
75787;SDS011;64406;50.024;14.492;2022-12-05T04:15:48;13.35;;;7.88;;
75787;SDS011;64406;50.024;14.492;2022-12-05T04:18:37;11.18;;;6.97;;
75787;SDS011;64406;50.024;14.492;2022-12-05T04:21:07;11.63;;;6.65;;
75787;SDS011;64406;50.024;14.492;2022-12-05T04:23:53;14.18;;;7.40;;
75787;SDS011;64406;50.024;14.492;2022-12-05T04:26:42;13.00;;;7.88;;
75787;SDS011;64406;50.024;14.492;2022-12-05T04:29:16;14.60;;;8.23;;
75787;SDS011;64406;50.024;14.492;2022-12-05T04:31:50;13.23;;;7.68;;
75787;SDS011;64406;50.024;14.492;2022-12-05T04:34:21;13.80;;;7.45;;
75787;SDS011;64406;50.024;14.492;2022-12-05T04:36:50;12.85;;;7.80;;
75787;SDS011;64406;50.024;14.492;2022-12-05T04:39:28;14.13;;;8.20;;
75787;SDS011;64406;50.024;14.492;2022-12-05T04:42:01;13.07;;;7.35;;
75787;SDS011;64406;50.024;14.492;2022-12-05T04:45:05;12.93;;;7.15;;
75787;SDS011;64406;50.024;14.492;2022-12-05T04:47:31;13.07;;;7.97;;
75787;SDS011;64406;50.024;14.492;2022-12-05T04:50:03;16.50;;;8.40;;
75787;SDS011;64406;50.024;14.492;2022-12-05T04:52:30;12.45;;;7.70;;
75787;SDS011;64406;50.024;14.492;2022-12-05T04:55:03;12.60;;;7.35;;
75787;SDS011;64406;50.024;14.492;2022-12-05T04:57:52;15.85;;;8.75;;
75787;SDS011;64406;50.024;14.492;2022-12-05T05:00:34;14.70;;;7.65;;
75787;SDS011;64406;50.024;14.492;2022-12-05T05:06:02;12.30;;;8.00;;
75787;SDS011;64406;50.024;14.492;2022-12-05T05:08:28;13.38;;;7.68;;
75787;SDS011;64406;50.024;14.492;2022-12-05T05:11:11;12.32;;;7.50;;
75787;SDS011;64406;50.024;14.492;2022-12-05T05:16:04;13.73;;;8.30;;
75787;SDS011;64406;50.024;14.492;2022-12-05T05:18:30;13.27;;;8.32;;
75787;SDS011;64406;50.024;14.492;2022-12-05T05:20:56;12.88;;;7.68;;
75787;SDS011;64406;50.024;14.492;2022-12-05T05:23:22;15.52;;;8.23;;
75787;SDS011;64406;50.024;14.492;2022-12-05T05:25:54;16.50;;;8.27;;
75787;SDS011;64406;50.024;14.492;2022-12-05T05:28:20;15.35;;;7.88;;
75787;SDS011;64406;50.024;14.492;2022-12-05T05:30:47;13.18;;;7.57;;
75787;SDS011;64406;50.024;14.492;2022-12-05T05:33:13;12.32;;;7.45;;
75787;SDS011;64406;50.024;14.492;2022-12-05T05:35:39;13.65;;;8.00;;
75787;SDS011;64406;50.024;14.492;2022-12-05T05:38:04;12.32;;;8.23;;
75787;SDS011;64406;50.024;14.492;2022-12-05T05:40:30;13.13;;;7.75;;
75787;SDS011;64406;50.024;14.492;2022-12-05T05:42:55;14.73;;;8.32;;
75787;SDS011;64406;50.024;14.492;2022-12-05T05:45:21;18.30;;;8.35;;
75787;SDS011;64406;50.024;14.492;2022-12-05T05:47:47;15.75;;;9.15;;
75787;SDS011;64406;50.024;14.492;2022-12-05T05:50:13;19.10;;;9.35;;
75787;SDS011;64406;50.024;14.492;2022-12-05T05:52:39;14.38;;;7.80;;
75787;SDS011;64406;50.024;14.492;2022-12-05T05:55:05;14.32;;;8.32;;
75787;SDS011;64406;50.024;14.492;2022-12-05T05:57:31;15.80;;;8.77;;
75787;SDS011;64406;50.024;14.492;2022-12-05T05:59:57;14.48;;;8.98;;
75787;SDS011;64406;50.024;14.492;2022-12-05T06:02:23;16.10;;;8.77;;
75787;SDS011;64406;50.024;14.492;2022-12-05T06:04:48;13.70;;;8.10;;
75787;SDS011;64406;50.024;14.492;2022-12-05T06:07:14;16.33;;;8.75;;
75787;SDS011;64406;50.024;14.492;2022-12-05T06:09:40;15.68;;;8.75;;
75787;SDS011;64406;50.024;14.492;2022-12-05T06:12:05;16.35;;;9.25;;
75787;SDS011;64406;50.024;14.492;2022-12-05T06:14:31;18.15;;;9.65;;
75787;SDS011;64406;50.024;14.492;2022-12-05T06:16:56;14.88;;;8.18;;
75787;SDS011;64406;50.024;14.492;2022-12-05T06:19:22;15.45;;;8.65;;
75787;SDS011;64406;50.024;14.492;2022-12-05T06:21:48;13.85;;;8.02;;
75787;SDS011;64406;50.024;14.492;2022-12-05T06:24:15;15.15;;;9.07;;
75787;SDS011;64406;50.024;14.492;2022-12-05T06:26:41;16.42;;;9.23;;
75787;SDS011;64406;50.024;14.492;2022-12-05T06:29:08;14.68;;;8.15;;
75787;SDS011;64406;50.024;14.492;2022-12-05T06:31:34;14.75;;;8.18;;
75787;SDS011;64406;50.024;14.492;2022-12-05T06:34:00;13.80;;;8.18;;
75787;SDS011;64406;50.024;14.492;2022-12-05T06:36:27;15.38;;;8.10;;
75787;SDS011;64406;50.024;14.492;2022-12-05T06:38:57;12.93;;;8.18;;
75787;SDS011;64406;50.024;14.492;2022-12-05T06:41:23;14.43;;;9.02;;
75787;SDS011;64406;50.024;14.492;2022-12-05T06:43:53;14.68;;;8.48;;
75787;SDS011;64406;50.024;14.492;2022-12-05T06:46:20;14.50;;;8.23;;
75787;SDS011;64406;50.024;14.492;2022-12-05T06:48:46;14.02;;;8.07;;
75787;SDS011;64406;50.024;14.492;2022-12-05T06:51:14;14.85;;;8.00;;
75787;SDS011;64406;50.024;14.492;2022-12-05T06:53:41;12.02;;;7.53;;
75787;SDS011;64406;50.024;14.492;2022-12-05T06:56:09;18.50;;;8.40;;
75787;SDS011;64406;50.024;14.492;2022-12-05T06:58:36;13.18;;;8.55;;
75787;SDS011;64406;50.024;14.492;2022-12-05T07:01:02;14.35;;;8.63;;
75787;SDS011;64406;50.024;14.492;2022-12-05T07:06:15;8.70;;;5.57;;
75787;SDS011;64406;50.024;14.492;2022-12-05T07:08:41;11.45;;;6.75;;
75787;SDS011;64406;50.024;14.492;2022-12-05T07:11:06;12.65;;;7.20;;
75787;SDS011;64406;50.024;14.492;2022-12-05T07:13:32;15.07;;;8.50;;
75787;SDS011;64406;50.024;14.492;2022-12-05T07:15:58;14.27;;;7.38;;
75787;SDS011;64406;50.024;14.492;2022-12-05T07:18:24;11.73;;;7.75;;
75787;SDS011;64406;50.024;14.492;2022-12-05T07:21:00;11.85;;;6.50;;
75787;SDS011;64406;50.024;14.492;2022-12-05T07:23:28;10.63;;;6.97;;
75787;SDS011;64406;50.024;14.492;2022-12-05T07:25:53;12.48;;;7.43;;
75787;SDS011;64406;50.024;14.492;2022-12-05T07:28:19;11.88;;;7.30;;
75787;SDS011;64406;50.024;14.492;2022-12-05T07:30:45;13.55;;;8.35;;
75787;SDS011;64406;50.024;14.492;2022-12-05T07:33:11;14.02;;;8.23;;
75787;SDS011;64406;50.024;14.492;2022-12-05T07:35:36;16.60;;;8.48;;
75787;SDS011;64406;50.024;14.492;2022-12-05T07:38:02;13.50;;;8.00;;
75787;SDS011;64406;50.024;14.492;2022-12-05T07:40:28;15.15;;;7.60;;
75787;SDS011;64406;50.024;14.492;2022-12-05T07:42:54;15.38;;;8.00;;
75787;SDS011;64406;50.024;14.492;2022-12-05T07:45:20;13.30;;;7.15;;
75787;SDS011;64406;50.024;14.492;2022-12-05T07:47:46;15.57;;;8.65;;
75787;SDS011;64406;50.024;14.492;2022-12-05T07:50:12;13.73;;;8.35;;
75787;SDS011;64406;50.024;14.492;2022-12-05T07:52:39;15.02;;;7.57;;
75787;SDS011;64406;50.024;14.492;2022-12-05T07:55:05;14.75;;;7.43;;
75787;SDS011;64406;50.024;14.492;2022-12-05T07:57:32;14.63;;;8.43;;
75787;SDS011;64406;50.024;14.492;2022-12-05T07:59:57;16.42;;;8.30;;
75787;SDS011;64406;50.024;14.492;2022-12-05T08:02:23;15.80;;;8.02;;
75787;SDS011;64406;50.024;14.492;2022-12-05T08:04:49;16.52;;;8.68;;
75787;SDS011;64406;50.024;14.492;2022-12-05T08:07:14;12.82;;;7.60;;
75787;SDS011;64406;50.024;14.492;2022-12-05T08:09:40;14.30;;;7.97;;
75787;SDS011;64406;50.024;14.492;2022-12-05T08:12:06;12.60;;;7.78;;
75787;SDS011;64406;50.024;14.492;2022-12-05T08:14:31;17.02;;;9.07;;
75787;SDS011;64406;50.024;14.492;2022-12-05T08:16:57;19.50;;;9.43;;
75787;SDS011;64406;50.024;14.492;2022-12-05T08:19:22;15.68;;;9.77;;
75787;SDS011;64406;50.024;14.492;2022-12-05T08:21:48;20.02;;;9.60;;
75787;SDS011;64406;50.024;14.492;2022-12-05T08:24:16;16.98;;;9.82;;
75787;SDS011;64406;50.024;14.492;2022-12-05T08:26:41;17.73;;;10.05;;
75787;SDS011;64406;50.024;14.492;2022-12-05T08:29:08;14.38;;;8.65;;
75787;SDS011;64406;50.024;14.492;2022-12-05T08:31:43;15.70;;;9.20;;
75787;SDS011;64406;50.024;14.492;2022-12-05T08:34:14;15.45;;;9.13;;
75787;SDS011;64406;50.024;14.492;2022-12-05T08:36:41;18.35;;;9.48;;
75787;SDS011;64406;50.024;14.492;2022-12-05T08:39:07;15.32;;;8.63;;
75787;SDS011;64406;50.024;14.492;2022-12-05T08:41:36;13.20;;;8.90;;
75787;SDS011;64406;50.024;14.492;2022-12-05T08:44:02;14.88;;;8.50;;
75787;SDS011;64406;50.024;14.492;2022-12-05T08:46:33;17.73;;;8.75;;
75787;SDS011;64406;50.024;14.492;2022-12-05T08:49:01;14.18;;;8.45;;
75787;SDS011;64406;50.024;14.492;2022-12-05T08:51:28;12.07;;;7.70;;
75787;SDS011;64406;50.024;14.492;2022-12-05T08:53:53;16.05;;;9.27;;
75787;SDS011;64406;50.024;14.492;2022-12-05T08:56:20;15.07;;;8.60;;
75787;SDS011;64406;50.024;14.492;2022-12-05T08:58:46;15.93;;;8.35;;
75787;SDS011;64406;50.024;14.492;2022-12-05T09:01:13;17.98;;;9.27;;
75787;SDS011;64406;50.024;14.492;2022-12-05T09:03:41;16.40;;;8.68;;
75787;SDS011;64406;50.024;14.492;2022-12-05T09:06:09;16.33;;;8.68;;
75787;SDS011;64406;50.024;14.492;2022-12-05T09:08:42;13.45;;;8.43;;
75787;SDS011;64406;50.024;14.492;2022-12-05T09:11:16;15.80;;;8.48;;
75787;SDS011;64406;50.024;14.492;2022-12-05T09:13:44;20.63;;;9.50;;
75787;SDS011;64406;50.024;14.492;2022-12-05T09:16:12;14.43;;;8.85;;
75787;SDS011;64406;50.024;14.492;2022-12-05T09:18:39;15.88;;;9.15;;
75787;SDS011;64406;50.024;14.492;2022-12-05T09:21:06;16.73;;;9.13;;
75787;SDS011;64406;50.024;14.492;2022-12-05T09:23:36;17.00;;;9.60;;
75787;SDS011;64406;50.024;14.492;2022-12-05T09:26:03;15.93;;;8.43;;
75787;SDS011;64406;50.024;14.492;2022-12-05T09:28:30;17.42;;;9.38;;
75787;SDS011;64406;50.024;14.492;2022-12-05T09:31:01;14.00;;;9.00;;
75787;SDS011;64406;50.024;14.492;2022-12-05T09:33:28;16.75;;;9.05;;
75787;SDS011;64406;50.024;14.492;2022-12-05T09:35:55;17.95;;;9.80;;
75787;SDS011;64406;50.024;14.492;2022-12-05T09:38:24;14.35;;;8.77;;
75787;SDS011;64406;50.024;14.492;2022-12-05T09:40:50;14.23;;;8.30;;
75787;SDS011;64406;50.024;14.492;2022-12-05T09:43:30;21.42;;;8.88;;
75787;SDS011;64406;50.024;14.492;2022-12-05T09:46:17;17.95;;;8.70;;
75787;SDS011;64406;50.024;14.492;2022-12-05T09:48:52;17.88;;;8.63;;
75787;SDS011;64406;50.024;14.492;2022-12-05T09:51:18;16.27;;;8.85;;
75787;SDS011;64406;50.024;14.492;2022-12-05T09:53:44;13.57;;;8.50;;
75787;SDS011;64406;50.024;14.492;2022-12-05T09:58:43;16.58;;;8.73;;
75787;SDS011;64406;50.024;14.492;2022-12-05T10:01:15;17.58;;;9.43;;
75787;SDS011;64406;50.024;14.492;2022-12-05T10:14:39;17.65;;;8.95;;
75787;SDS011;64406;50.024;14.492;2022-12-05T10:17:27;13.05;;;9.27;;
75787;SDS011;64406;50.024;14.492;2022-12-05T10:19:59;14.95;;;8.60;;
75787;SDS011;64406;50.024;14.492;2022-12-05T10:22:38;13.05;;;7.90;;
75787;SDS011;64406;50.024;14.492;2022-12-05T10:25:10;16.08;;;7.72;;
75787;SDS011;64406;50.024;14.492;2022-12-05T10:27:50;12.45;;;7.35;;
75787;SDS011;64406;50.024;14.492;2022-12-05T10:30:18;12.07;;;7.40;;
75787;SDS011;64406;50.024;14.492;2022-12-05T10:32:55;13.52;;;7.63;;
75787;SDS011;64406;50.024;14.492;2022-12-05T10:35:23;11.40;;;6.20;;
75787;SDS011;64406;50.024;14.492;2022-12-05T10:37:57;11.45;;;6.47;;
75787;SDS011;64406;50.024;14.492;2022-12-05T10:43:12;14.90;;;6.53;;
75787;SDS011;64406;50.024;14.492;2022-12-05T10:45:44;9.98;;;6.05;;
75787;SDS011;64406;50.024;14.492;2022-12-05T10:48:13;10.50;;;6.10;;
75787;SDS011;64406;50.024;14.492;2022-12-05T10:50:43;12.23;;;7.20;;
75787;SDS011;64406;50.024;14.492;2022-12-05T10:53:17;10.77;;;6.35;;
75787;SDS011;64406;50.024;14.492;2022-12-05T10:55:48;7.93;;;5.07;;
75787;SDS011;64406;50.024;14.492;2022-12-05T10:58:20;9.45;;;5.78;;
75787;SDS011;64406;50.024;14.492;2022-12-05T11:00:51;11.77;;;6.05;;
75787;SDS011;64406;50.024;14.492;2022-12-05T11:03:31;11.90;;;6.15;;
75787;SDS011;64406;50.024;14.492;2022-12-05T11:06:01;10.35;;;6.05;;
75787;SDS011;64406;50.024;14.492;2022-12-05T11:08:38;6.78;;;4.68;;
75787;SDS011;64406;50.024;14.492;2022-12-05T11:13:42;8.77;;;5.40;;
75787;SDS011;64406;50.024;14.492;2022-12-05T11:16:21;10.70;;;6.65;;
75787;SDS011;64406;50.024;14.492;2022-12-05T11:18:49;9.57;;;6.15;;
75787;SDS011;64406;50.024;14.492;2022-12-05T11:21:14;10.07;;;5.53;;
75787;SDS011;64406;50.024;14.492;2022-12-05T11:23:43;11.43;;;6.57;;
75787;SDS011;64406;50.024;14.492;2022-12-05T11:29:04;12.57;;;6.38;;
75787;SDS011;64406;50.024;14.492;2022-12-05T11:31:54;9.70;;;5.28;;
75787;SDS011;64406;50.024;14.492;2022-12-05T11:34:22;11.68;;;6.90;;
75787;SDS011;64406;50.024;14.492;2022-12-05T11:37:03;11.55;;;6.20;;
75787;SDS011;64406;50.024;14.492;2022-12-05T11:39:36;10.63;;;6.22;;
75787;SDS011;64406;50.024;14.492;2022-12-05T11:42:08;13.15;;;6.68;;
75787;SDS011;64406;50.024;14.492;2022-12-05T11:50:45;8.45;;;5.38;;
75787;SDS011;64406;50.024;14.492;2022-12-05T11:53:48;10.65;;;6.28;;
75787;SDS011;64406;50.024;14.492;2022-12-05T11:56:41;6.82;;;4.97;;
75787;SDS011;64406;50.024;14.492;2022-12-05T12:02:01;10.00;;;5.53;;
75787;SDS011;64406;50.024;14.492;2022-12-05T12:07:05;10.73;;;5.60;;
75787;SDS011;64406;50.024;14.492;2022-12-05T12:09:53;10.50;;;5.93;;
75787;SDS011;64406;50.024;14.492;2022-12-05T12:17:59;12.50;;;5.72;;
75787;SDS011;64406;50.024;14.492;2022-12-05T12:23:33;9.52;;;5.35;;
75787;SDS011;64406;50.024;14.492;2022-12-05T12:26:29;10.40;;;5.47;;
75787;SDS011;64406;50.024;14.492;2022-12-05T12:34:42;10.68;;;6.43;;
75787;SDS011;64406;50.024;14.492;2022-12-05T12:37:20;11.50;;;6.13;;
75787;SDS011;64406;50.024;14.492;2022-12-05T12:42:44;9.02;;;5.53;;
75787;SDS011;64406;50.024;14.492;2022-12-05T12:51:19;9.07;;;5.82;;
75787;SDS011;64406;50.024;14.492;2022-12-05T12:56:29;9.73;;;5.78;;
75787;SDS011;64406;50.024;14.492;2022-12-05T13:02:41;8.65;;;5.68;;
75787;SDS011;64406;50.024;14.492;2022-12-05T13:07:50;10.10;;;5.20;;
75787;SDS011;64406;50.024;14.492;2022-12-05T13:10:26;9.20;;;5.68;;
75787;SDS011;64406;50.024;14.492;2022-12-05T13:12:55;10.30;;;5.63;;
75787;SDS011;64406;50.024;14.492;2022-12-05T13:15:24;13.38;;;6.63;;
75787;SDS011;64406;50.024;14.492;2022-12-05T13:17:57;9.18;;;5.28;;
75787;SDS011;64406;50.024;14.492;2022-12-05T13:20:24;10.02;;;6.15;;
75787;SDS011;64406;50.024;14.492;2022-12-05T13:22:54;10.05;;;5.40;;
75787;SDS011;64406;50.024;14.492;2022-12-05T13:25:21;9.57;;;5.53;;
75787;SDS011;64406;50.024;14.492;2022-12-05T13:28:02;11.98;;;6.03;;
75787;SDS011;64406;50.024;14.492;2022-12-05T13:30:29;10.02;;;5.95;;
75787;SDS011;64406;50.024;14.492;2022-12-05T13:32:57;11.95;;;5.68;;
75787;SDS011;64406;50.024;14.492;2022-12-05T13:35:28;9.13;;;5.72;;
75787;SDS011;64406;50.024;14.492;2022-12-05T13:38:20;9.85;;;6.00;;
75787;SDS011;64406;50.024;14.492;2022-12-05T13:41:04;12.95;;;6.32;;
75787;SDS011;64406;50.024;14.492;2022-12-05T13:43:49;11.98;;;6.40;;
75787;SDS011;64406;50.024;14.492;2022-12-05T13:46:33;14.40;;;7.70;;
75787;SDS011;64406;50.024;14.492;2022-12-05T13:49:15;16.65;;;7.43;;
75787;SDS011;64406;50.024;14.492;2022-12-05T13:51:47;14.55;;;6.95;;
75787;SDS011;64406;50.024;14.492;2022-12-05T13:54:20;13.75;;;7.25;;
75787;SDS011;64406;50.024;14.492;2022-12-05T13:56:55;14.07;;;6.97;;
75787;SDS011;64406;50.024;14.492;2022-12-05T14:07:42;10.25;;;6.07;;
75787;SDS011;64406;50.024;14.492;2022-12-05T14:10:20;13.85;;;7.05;;
75787;SDS011;64406;50.024;14.492;2022-12-05T14:12:56;13.45;;;7.22;;
75787;SDS011;64406;50.024;14.492;2022-12-05T14:17:49;11.18;;;5.80;;
75787;SDS011;64406;50.024;14.492;2022-12-05T14:20:24;13.77;;;6.73;;
75787;SDS011;64406;50.024;14.492;2022-12-05T14:25:31;11.52;;;7.05;;
75787;SDS011;64406;50.024;14.492;2022-12-05T14:34:25;13.57;;;6.95;;
75787;SDS011;64406;50.024;14.492;2022-12-05T14:36:58;11.43;;;7.15;;
75787;SDS011;64406;50.024;14.492;2022-12-05T14:39:41;8.73;;;6.03;;
75787;SDS011;64406;50.024;14.492;2022-12-05T14:42:18;11.10;;;7.28;;
75787;SDS011;64406;50.024;14.492;2022-12-05T14:44:49;15.50;;;7.78;;
75787;SDS011;64406;50.024;14.492;2022-12-05T14:47:22;13.40;;;7.35;;
75787;SDS011;64406;50.024;14.492;2022-12-05T14:49:55;10.80;;;6.85;;
75787;SDS011;64406;50.024;14.492;2022-12-05T14:52:24;12.93;;;6.60;;
75787;SDS011;64406;50.024;14.492;2022-12-05T14:54:51;13.35;;;7.00;;
75787;SDS011;64406;50.024;14.492;2022-12-05T14:57:22;14.25;;;7.82;;
75787;SDS011;64406;50.024;14.492;2022-12-05T15:02:32;11.05;;;6.60;;
75787;SDS011;64406;50.024;14.492;2022-12-05T15:08:12;12.50;;;6.28;;
75787;SDS011;64406;50.024;14.492;2022-12-05T15:10:40;12.43;;;7.20;;
75787;SDS011;64406;50.024;14.492;2022-12-05T15:13:41;11.38;;;6.43;;
75787;SDS011;64406;50.024;14.492;2022-12-05T15:16:00;16.83;;;6.68;;
75787;SDS011;64406;50.024;14.492;2022-12-05T15:18:42;9.57;;;6.05;;
75787;SDS011;64406;50.024;14.492;2022-12-05T15:21:21;12.77;;;7.13;;
75787;SDS011;64406;50.024;14.492;2022-12-05T15:29:08;10.57;;;6.97;;
75787;SDS011;64406;50.024;14.492;2022-12-05T15:31:38;13.05;;;6.22;;
75787;SDS011;64406;50.024;14.492;2022-12-05T15:34:29;12.25;;;6.53;;
75787;SDS011;64406;50.024;14.492;2022-12-05T15:37:16;15.20;;;6.97;;
75787;SDS011;64406;50.024;14.492;2022-12-05T15:40:09;13.25;;;6.78;;
75787;SDS011;64406;50.024;14.492;2022-12-05T15:47:36;16.23;;;9.27;;
75787;SDS011;64406;50.024;14.492;2022-12-05T15:50:02;17.08;;;8.40;;
75787;SDS011;64406;50.024;14.492;2022-12-05T15:52:39;17.25;;;8.73;;
75787;SDS011;64406;50.024;14.492;2022-12-05T15:55:11;14.13;;;8.10;;
75787;SDS011;64406;50.024;14.492;2022-12-05T15:57:41;18.30;;;9.63;;
75787;SDS011;64406;50.024;14.492;2022-12-05T16:00:14;18.23;;;9.23;;
75787;SDS011;64406;50.024;14.492;2022-12-05T16:05:31;17.73;;;10.23;;
75787;SDS011;64406;50.024;14.492;2022-12-05T16:08:03;18.77;;;10.07;;
75787;SDS011;64406;50.024;14.492;2022-12-05T16:10:30;17.15;;;9.23;;
75787;SDS011;64406;50.024;14.492;2022-12-05T16:13:01;16.25;;;9.38;;
75787;SDS011;64406;50.024;14.492;2022-12-05T16:15:29;16.02;;;9.30;;
75787;SDS011;64406;50.024;14.492;2022-12-05T16:17:56;16.85;;;8.55;;
75787;SDS011;64406;50.024;14.492;2022-12-05T16:22:51;17.50;;;9.57;;
75787;SDS011;64406;50.024;14.492;2022-12-05T16:25:23;21.20;;;8.93;;
75787;SDS011;64406;50.024;14.492;2022-12-05T16:27:57;15.90;;;8.38;;
75787;SDS011;64406;50.024;14.492;2022-12-05T16:30:56;15.23;;;9.15;;
75787;SDS011;64406;50.024;14.492;2022-12-05T16:33:24;15.38;;;9.15;;
75787;SDS011;64406;50.024;14.492;2022-12-05T16:35:51;20.25;;;9.95;;
75787;SDS011;64406;50.024;14.492;2022-12-05T16:43:22;14.23;;;8.45;;
75787;SDS011;64406;50.024;14.492;2022-12-05T16:45:49;13.88;;;8.07;;
75787;SDS011;64406;50.024;14.492;2022-12-05T16:48:24;15.00;;;8.48;;
75787;SDS011;64406;50.024;14.492;2022-12-05T16:50:52;15.52;;;8.50;;
75787;SDS011;64406;50.024;14.492;2022-12-05T16:53:39;14.50;;;8.10;;
75787;SDS011;64406;50.024;14.492;2022-12-05T16:56:08;14.63;;;8.65;;
75787;SDS011;64406;50.024;14.492;2022-12-05T16:58:40;13.68;;;8.00;;
75787;SDS011;64406;50.024;14.492;2022-12-05T17:01:11;14.43;;;8.32;;
75787;SDS011;64406;50.024;14.492;2022-12-05T17:03:40;16.48;;;7.70;;
75787;SDS011;64406;50.024;14.492;2022-12-05T17:06:06;12.23;;;7.80;;